createdAt,value
2019-04-11T00:00:55.659Z,-0.24
2019-04-11T00:01:54.342Z,-0.13
2019-04-11T00:02:55.395Z,-0.47
2019-04-11T00:03:54.169Z,-0.32
2019-04-11T00:04:54.879Z,-0.35
2019-04-11T00:05:55.141Z,-0.43
2019-04-11T00:06:54.209Z,-0.29
2019-04-11T00:07:54.483Z,-0.21
2019-04-11T00:08:54.477Z,-0.26
2019-04-11T00:09:54.826Z,-0.39
2019-04-11T00:10:54.178Z,-0.33
2019-04-11T00:11:54.628Z,-0.4
2019-04-11T00:12:55.027Z,-0.43
2019-04-11T00:13:54.132Z,-0.34
2019-04-11T00:14:54.114Z,-0.41
2019-04-11T00:15:55.251Z,-0.48
2019-04-11T00:16:55.559Z,-0.57
2019-04-11T00:17:54.758Z,-0.48
2019-04-11T00:18:54.994Z,-0.57
2019-04-11T00:19:54.095Z,-0.56
2019-04-11T00:20:54.144Z,-0.47
2019-04-11T00:21:55.427Z,-0.54
2019-04-11T00:22:54.366Z,-0.44
2019-04-11T00:23:54.870Z,-0.55
2019-04-11T00:24:54.163Z,-0.41
2019-04-11T00:25:54.138Z,-0.28
2019-04-11T00:26:55.135Z,-0.55
2019-04-11T00:27:54.797Z,-0.24
2019-04-11T00:28:54.375Z,-0.29
2019-04-11T00:29:54.122Z,-0.29
2019-04-11T00:30:54.944Z,-0.4
2019-04-11T00:31:55.051Z,-0.42
2019-04-11T00:32:54.117Z,-0.46
2019-04-11T00:33:54.990Z,-0.44
2019-04-11T00:34:55.503Z,-0.38
2019-04-11T00:35:54.139Z,-0.4
2019-04-11T00:36:55.096Z,-0.25
2019-04-11T00:37:54.111Z,-0.25
2019-04-11T00:38:55.339Z,-0.17
2019-04-11T00:39:54.303Z,-0.4
2019-04-11T00:40:54.867Z,-0.46
2019-04-11T00:41:54.621Z,-0.37
2019-04-11T00:42:54.920Z,-0.41
2019-04-11T00:43:54.862Z,-0.26
2019-04-11T00:44:55.150Z,-0.47
2019-04-11T00:45:54.360Z,-0.42
2019-04-11T00:46:54.141Z,-0.53
2019-04-11T00:47:55.422Z,-0.67
2019-04-11T00:48:54.658Z,-0.55
2019-04-11T00:49:54.897Z,-0.49
2019-04-11T00:50:54.082Z,-0.33
2019-04-11T00:51:54.201Z,-0.3
2019-04-11T00:52:54.140Z,-0.35
2019-04-11T00:53:54.341Z,-0.24
2019-04-11T00:54:55.494Z,-0.15
2019-04-11T00:55:54.127Z,-0.02
2019-04-11T00:56:54.926Z,-0.1
2019-04-11T00:57:55.222Z,-0.46
2019-04-11T00:58:54.407Z,-0.34
2019-04-11T00:59:54.536Z,-0.26
2019-04-11T01:00:54.060Z,-0.31
2019-04-11T01:01:54.250Z,-0.27
2019-04-11T01:02:54.155Z,-0.31
2019-04-11T01:03:55.999Z,-0.17
2019-04-11T01:04:54.113Z,-0.57
2019-04-11T01:05:58.382Z,-0.42
2019-04-11T01:06:54.604Z,-0.33
2019-04-11T01:07:54.058Z,-0.46
2019-04-11T01:08:54.150Z,-0.41
2019-04-11T01:09:55.008Z,-0.49
2019-04-11T01:10:55.336Z,-0.66
2019-04-11T01:11:54.529Z,-0.62
2019-04-11T01:12:54.233Z,-0.49
2019-04-11T01:13:55.938Z,-0.38
2019-04-11T01:14:55.496Z,-0.38
2019-04-11T01:15:54.624Z,-0.35
2019-04-11T01:16:54.073Z,-0.3
2019-04-11T01:17:54.082Z,-0.2
2019-04-11T01:18:55.368Z,-0.32
2019-04-11T01:19:55.523Z,-0.25
2019-04-11T01:20:54.081Z,-0.19
2019-04-11T01:21:55.183Z,-0.04
2019-04-11T01:22:54.426Z,-0.09
2019-04-11T01:23:54.127Z,-0.35
2019-04-11T01:24:54.040Z,-0.34
2019-04-11T01:25:55.105Z,-0.35
2019-04-11T01:26:55.365Z,-0.32
2019-04-11T01:27:54.527Z,-0.22
2019-04-11T01:28:55.587Z,-0.11
2019-04-11T01:29:54.074Z,-0.13
2019-04-11T01:30:54.054Z,-0.31
2019-04-11T01:31:54.164Z,-0.35
2019-04-11T01:32:55.066Z,-0.21
2019-04-11T01:33:54.054Z,-0.19
2019-04-11T01:34:55.189Z,-0.05
2019-04-11T01:35:54.050Z,0.06
2019-04-11T01:36:54.114Z,0.18
2019-04-11T01:37:54.015Z,0.06
2019-04-11T01:38:54.998Z,0.03
2019-04-11T01:39:54.109Z,0.09
2019-04-11T01:40:54.210Z,0.2
2019-04-11T01:41:55.435Z,0.26
2019-04-11T01:42:54.047Z,0.23
2019-04-11T01:44:09.002Z,0.27
2019-04-11T01:44:55.029Z,0.23
2019-04-11T01:45:54.039Z,0.33
2019-04-11T01:46:54.326Z,0.28
2019-04-11T01:47:55.406Z,0.45
2019-04-11T01:48:54.016Z,0.32
2019-04-11T01:49:54.763Z,0.38
2019-04-11T01:50:54.021Z,0.42
2019-04-11T01:51:54.128Z,0.35
2019-04-11T01:52:55.204Z,0.29
2019-04-11T01:53:55.471Z,0.31
2019-04-11T01:54:54.388Z,0.45
2019-04-11T01:55:54.105Z,0.46
2019-04-11T01:56:54.011Z,0.39
2019-04-11T01:57:54.262Z,0.55
2019-04-11T01:58:55.425Z,0.64
2019-04-11T01:59:54.017Z,0.59
2019-04-11T02:00:54.925Z,0.48
2019-04-11T02:01:55.049Z,0.47
2019-04-11T02:02:55.097Z,0.61
2019-04-11T02:03:55.468Z,0.5
2019-04-11T02:04:54.584Z,0.48
2019-04-11T02:05:54.022Z,0.48
2019-04-11T02:06:54.422Z,0.56
2019-04-11T02:07:55.451Z,0.44
2019-04-11T02:08:54.015Z,0.49
2019-04-11T02:09:54.986Z,0.42
2019-04-11T02:10:54.176Z,0.46
2019-04-11T02:11:54.193Z,0.57
2019-04-11T02:12:55.091Z,0.55
2019-04-11T02:14:21.016Z,0.54
2019-04-11T02:14:53.976Z,0.5
2019-04-11T02:16:01.496Z,0.54
2019-04-11T02:16:54.017Z,0.53
2019-04-11T02:17:55.256Z,0.56
2019-04-11T02:18:54.232Z,0.54
2019-04-11T02:19:54.096Z,0.53
2019-04-11T02:20:55.884Z,0.49
2019-04-11T02:21:53.976Z,0.42
2019-04-11T02:22:55.209Z,0.36
2019-04-11T02:23:55.381Z,0.28
2019-04-11T02:24:54.495Z,0.32
2019-04-11T02:25:54.691Z,0.34
2019-04-11T02:26:54.800Z,0.49
2019-04-11T02:27:54.438Z,0.54
2019-04-11T02:28:55.426Z,0.5
2019-04-11T02:29:55.382Z,0.43
2019-04-11T02:30:56.924Z,0.56
2019-04-11T02:32:05.597Z,0.52
2019-04-11T02:32:54.031Z,0.46
2019-04-11T02:34:01.315Z,0.47
2019-04-11T02:35:08.216Z,0.45
2019-04-11T02:35:57.387Z,0.43
2019-04-11T02:37:02.498Z,0.49
2019-04-11T02:38:00.308Z,0.53
2019-04-11T02:39:17.055Z,0.51
2019-04-11T02:40:00.222Z,0.42
2019-04-11T02:40:58.358Z,0.49
2019-04-11T02:42:01.962Z,0.43
2019-04-11T02:42:55.148Z,0.29
2019-04-11T02:44:01.440Z,0.27
2019-04-11T02:47:27.500Z,0.23
2019-04-11T02:47:57.311Z,0.2
2019-04-11T02:49:03.071Z,0.25
2019-04-11T02:49:57.135Z,0.31
2019-04-11T02:51:02.837Z,0.24
2019-04-11T02:51:56.281Z,0.22
2019-04-11T02:52:54.190Z,0.21
2019-04-11T02:53:59.152Z,0.22
2019-04-11T02:54:54.773Z,0.24
2019-04-11T02:56:02.281Z,0.21
2019-04-11T02:56:55.218Z,0.05
2019-04-11T02:58:00.794Z,0.2
2019-04-11T02:58:56.802Z,0.11
2019-04-11T02:59:56.733Z,0.11
2019-04-11T03:01:09.345Z,0.12
2019-04-11T03:01:53.933Z,0.13
2019-04-11T03:02:54.347Z,0.09
2019-04-11T03:03:59.434Z,-0.02
2019-04-11T03:04:56.831Z,0.03
2019-04-11T03:06:04.422Z,0.1
2019-04-11T03:06:57.572Z,0.11
2019-04-11T03:07:58.461Z,0.15
2019-04-11T03:08:59.461Z,0.15
2019-04-11T03:09:57.042Z,0.16
2019-04-11T03:10:59.664Z,0.02
2019-04-11T03:11:59.553Z,0.02
2019-04-11T03:12:56.942Z,0.11
2019-04-11T03:13:55.268Z,0.22
2019-04-11T03:17:33.059Z,0.25
2019-04-11T03:18:10.624Z,0.23
2019-04-11T03:20:40.669Z,0.18
2019-04-11T03:21:21.536Z,0.21
2019-04-11T03:22:03.207Z,0.26
2019-04-11T03:23:13.905Z,0.32
2019-04-11T03:23:54.130Z,0.32
2019-04-11T03:25:00.637Z,0.33
2019-04-11T03:25:56.774Z,0.25
2019-04-11T03:27:07.267Z,0.42
2019-04-11T03:27:54.499Z,0.36
2019-04-11T03:28:59.877Z,0.37
2019-04-11T03:30:03.156Z,0.5
2019-04-11T03:44:35.699Z,0.41
2019-04-11T03:50:23.613Z,0.24
2019-04-11T03:51:03.920Z,0.27
2019-04-11T03:51:55.915Z,0.31
2019-04-11T03:53:06.456Z,0.23
2019-04-11T03:53:53.910Z,0.29
2019-04-11T03:55:03.720Z,0.3
2019-04-11T03:55:56.455Z,0.21
2019-04-11T03:56:54.162Z,0.22
2019-04-11T03:58:01.462Z,0.34
2019-04-11T03:58:58.638Z,0.37
2019-04-11T04:00:03.091Z,0.26
2019-04-11T04:01:11.432Z,0.29
2019-04-11T04:02:00.139Z,0.19
2019-04-11T04:03:04.393Z,0.19
2019-04-11T04:03:55.958Z,0.06
2019-04-11T04:04:54.956Z,0.22
2019-04-11T04:06:02.295Z,0.25
2019-04-11T04:06:58.606Z,0.26
2019-04-11T04:08:04.559Z,0.08
2019-04-11T04:08:55.978Z,0.04
2019-04-11T04:09:54.797Z,0.11
2019-04-11T04:10:53.824Z,0.03
2019-04-11T04:11:59.711Z,0.03
2019-04-11T04:13:04.503Z,0.25
2019-04-11T04:13:56.504Z,0.12
2019-04-11T04:14:54.613Z,0.14
2019-04-11T04:16:34.077Z,-0.02
2019-04-11T04:17:08.624Z,-0.03
2019-04-11T04:18:00.125Z,-0.04
2019-04-11T04:19:02.913Z,-0.1
2019-04-11T04:19:56.923Z,0.03
2019-04-11T04:20:53.948Z,0.05
2019-04-11T04:21:59.546Z,0.01
2019-04-11T04:22:57.339Z,0
2019-04-11T04:24:04.173Z,-0.03
2019-04-11T04:24:56.462Z,-0.07
2019-04-11T04:25:55.415Z,-0.05
2019-04-11T04:27:02.136Z,0.04
2019-04-11T04:27:59.512Z,0.09
2019-04-11T04:28:57.757Z,0.05
2019-04-11T04:30:06.214Z,-0.02
2019-04-11T04:30:54.655Z,0.07
2019-04-11T04:31:56.858Z,0.11
2019-04-11T04:32:57.457Z,0.13
2019-04-11T04:33:59.727Z,0.02
2019-04-11T04:34:53.875Z,0.04
2019-04-11T04:35:54.157Z,0.12
2019-04-11T04:36:55.894Z,0.12
2019-04-11T04:37:54.769Z,0.18
2019-04-11T04:38:54.865Z,0.08
2019-04-11T04:41:45.473Z,0.02
2019-04-11T04:42:32.085Z,0.15
2019-04-11T04:43:07.563Z,0.22
2019-04-11T04:44:01.861Z,0.17
2019-04-11T04:44:58.633Z,0.13
2019-04-11T04:47:42.033Z,0.11
2019-04-11T04:48:16.376Z,0.09
2019-04-11T04:48:56.413Z,0.17
2019-04-11T04:49:54.649Z,0.16
2019-04-11T04:51:11.307Z,0.11
2019-04-11T04:51:56.380Z,0.1
2019-04-11T04:53:02.831Z,0.02
2019-04-11T04:54:00.619Z,-0.14
2019-04-11T04:55:05.984Z,-0.12
2019-04-11T04:55:54.625Z,-0.03
2019-04-11T04:56:55.368Z,-0.14
2019-04-11T04:58:01.941Z,0.03
2019-04-11T04:58:56.668Z,-0.08
2019-04-11T05:00:00.706Z,0.01
2019-04-11T05:00:58.844Z,-0.12
2019-04-11T05:01:56.109Z,-0.15
2019-04-11T05:03:02.572Z,-0.12
2019-04-11T05:03:58.975Z,-0.19
2019-04-11T05:04:56.685Z,-0.18
2019-04-11T05:05:55.658Z,-0.24
2019-04-11T05:06:55.389Z,-0.22
2019-04-11T05:07:57.994Z,-0.2
2019-04-11T05:08:53.786Z,-0.2
2019-04-11T05:09:58.213Z,-0.1
2019-04-11T05:10:58.052Z,-0.08
2019-04-11T05:11:55.375Z,-0.12
2019-04-11T05:12:57.228Z,-0.22
2019-04-11T05:13:58.837Z,-0.3
2019-04-11T05:14:56.305Z,-0.25
2019-04-11T05:16:18.244Z,-0.1
2019-04-11T05:16:54.825Z,-0.06
2019-04-11T05:17:53.716Z,-0.16
2019-04-11T05:18:54.933Z,-0.12
2019-04-11T05:19:54.612Z,-0.05
2019-04-11T05:20:54.931Z,-0.12
2019-04-11T05:21:54.255Z,-0.11
2019-04-11T05:22:54.063Z,-0.2
2019-04-11T05:23:56.853Z,-0.14
2019-04-11T05:25:03.400Z,-0.14
2019-04-11T05:25:55.141Z,0
2019-04-11T05:26:53.752Z,0.02
2019-04-11T05:27:54.266Z,-0.11
2019-04-11T05:28:53.762Z,-0.02
2019-04-11T05:29:53.740Z,0.02
2019-04-11T05:30:53.796Z,-0.02
2019-04-11T05:31:54.910Z,-0.05
2019-04-11T05:32:53.714Z,-0.11
2019-04-11T05:33:54.089Z,-0.03
2019-04-11T05:34:53.705Z,0.06
2019-04-11T05:35:54.407Z,-0.16
2019-04-11T05:36:53.986Z,-0.07
2019-04-11T05:37:53.762Z,-0.09
2019-04-11T05:38:54.919Z,-0.18
2019-04-11T05:39:53.703Z,-0.14
2019-04-11T05:40:54.813Z,-0.28
2019-04-11T05:41:54.656Z,-0.26
2019-04-11T05:42:55.985Z,-0.24
2019-04-11T05:43:53.945Z,-0.22
2019-04-11T05:44:54.980Z,-0.27
2019-04-11T05:45:58.468Z,-0.23
2019-04-11T05:47:06.967Z,-0.22
2019-04-11T05:47:58.672Z,-0.11
2019-04-11T05:49:03.932Z,-0.14
2019-04-11T05:49:54.916Z,-0.19
2019-04-11T05:50:54.329Z,-0.17
2019-04-11T05:52:03.950Z,-0.21
2019-04-11T05:52:54.878Z,-0.16
2019-04-11T05:53:56.014Z,-0.16
2019-04-11T05:54:54.557Z,-0.09
2019-04-11T05:55:53.696Z,0.02
2019-04-11T05:57:01.398Z,-0.05
2019-04-11T05:57:54.689Z,0.12
2019-04-11T05:58:53.691Z,0.21
2019-04-11T05:59:59.322Z,0.04
2019-04-11T06:00:59.756Z,0
2019-04-11T06:01:55.145Z,0.12
2019-04-11T06:02:53.744Z,0.15
2019-04-11T06:03:53.881Z,0.1
2019-04-11T06:04:58.036Z,0.05
2019-04-11T06:06:04.732Z,-0.32
2019-04-11T06:07:01.672Z,-0.69
2019-04-11T06:07:58.206Z,-1.06
2019-04-11T06:09:02.322Z,-1.34
2019-04-11T06:09:54.774Z,-1.33
2019-04-11T06:10:54.943Z,-1.53
2019-04-11T06:11:58.287Z,-1.29
2019-04-11T06:12:54.899Z,-1.48
2019-04-11T06:13:53.650Z,-1.33
2019-04-11T06:14:53.704Z,-1.39
2019-04-11T06:15:53.766Z,-1.37
2019-04-11T06:16:59.306Z,-1.42
2019-04-11T06:17:56.792Z,-1.53
2019-04-11T06:18:54.499Z,-1.54
2019-04-11T06:19:53.802Z,-1.56
2019-04-11T06:20:53.846Z,-1.61
2019-04-11T06:21:53.697Z,-1.38
2019-04-11T06:22:54.346Z,-1.31
2019-04-11T06:23:54.010Z,-1.62
2019-04-11T06:24:54.797Z,-1.63
2019-04-11T06:25:53.691Z,-1.49
2019-04-11T06:26:54.966Z,-1.27
2019-04-11T06:27:54.176Z,-1.53
2019-04-11T06:28:57.109Z,-1.79
2019-04-11T06:29:55.005Z,-1.64
2019-04-11T06:30:54.992Z,-1.71
2019-04-11T06:31:53.697Z,-1.71
2019-04-11T06:32:54.592Z,-1.74
2019-04-11T06:33:53.635Z,-1.92
2019-04-11T06:34:53.616Z,-1.71
2019-04-11T06:35:54.818Z,-1.61
2019-04-11T06:36:55.418Z,-1.45
2019-04-11T06:37:54.518Z,-1.4
2019-04-11T06:38:54.928Z,-1.27
2019-04-11T06:40:02.460Z,-1.51
2019-04-11T06:40:54.731Z,-1.72
2019-04-11T06:41:55.051Z,-1.59
2019-04-11T06:42:54.032Z,-1.53
2019-04-11T06:43:53.679Z,-1.86
2019-04-11T06:44:54.891Z,-1.93
2019-04-11T06:45:54.568Z,-1.75
2019-04-11T06:47:05.037Z,-1.67
2019-04-11T06:47:53.796Z,-1.37
2019-04-11T06:48:54.180Z,-1.29
2019-04-11T06:49:53.598Z,-1.42
2019-04-11T06:50:53.573Z,-1.48
2019-04-11T06:51:55.235Z,-1.33
2019-04-11T06:52:53.662Z,-1.27
2019-04-11T06:53:54.865Z,-1.25
2019-04-11T06:54:54.148Z,-1.39
2019-04-11T06:55:55.251Z,-1.49
2019-04-11T06:56:54.034Z,-1.71
2019-04-11T06:57:54.441Z,-1.64
2019-04-11T06:58:56.989Z,-1.59
2019-04-11T06:59:53.617Z,-1.63
2019-04-11T07:00:53.768Z,-1.61
2019-04-11T07:01:55.290Z,-1.7
2019-04-11T07:02:53.560Z,-1.83
2019-04-11T07:03:53.567Z,-1.71
2019-04-11T07:04:54.103Z,-1.4
2019-04-11T07:05:53.652Z,-1.34
2019-04-11T07:06:53.918Z,-1.63
2019-04-11T07:07:54.111Z,-1.8
2019-04-11T07:08:54.825Z,-1.61
2019-04-11T07:09:53.728Z,-1.43
2019-04-11T07:10:55.458Z,-1.08
2019-04-11T07:11:53.823Z,-1.06
2019-04-11T07:13:00.805Z,-1.28
2019-04-11T07:13:53.583Z,-1.71
2019-04-11T07:14:53.564Z,-1.82
2019-04-11T07:15:54.984Z,-1.6
2019-04-11T07:17:11.954Z,-1.48
2019-04-11T07:17:54.857Z,-1.55
2019-04-11T07:18:53.559Z,-1.69
2019-04-11T07:19:53.861Z,-1.82
2019-04-11T07:20:54.485Z,-1.76
2019-04-11T07:21:53.556Z,-1.65
2019-04-11T07:22:53.554Z,-1.43
2019-04-11T07:23:53.625Z,-1.75
2019-04-11T07:24:53.558Z,-1.75
2019-04-11T07:25:54.110Z,-1.73
2019-04-11T07:26:54.531Z,-1.76
2019-04-11T07:27:53.592Z,-1.69
2019-04-11T07:28:54.434Z,-1.47
2019-04-11T07:29:54.640Z,-1.3
2019-04-11T07:30:54.044Z,-1.44
2019-04-11T07:31:54.969Z,-1.49
2019-04-11T07:32:53.552Z,-1.28
2019-04-11T07:33:54.195Z,-1.62
2019-04-11T07:34:54.719Z,-1.54
2019-04-11T07:35:53.606Z,-1.4
2019-04-11T07:36:53.755Z,-1.33
2019-04-11T07:37:53.601Z,-1.37
2019-04-11T07:38:54.616Z,-1.18
2019-04-11T07:39:54.037Z,-1.16
2019-04-11T07:40:56.315Z,-0.95
2019-04-11T07:41:53.562Z,-0.86
2019-04-11T07:43:13.798Z,-0.87
2019-04-11T07:43:54.452Z,-0.79
2019-04-11T07:44:53.516Z,-0.98
2019-04-11T07:45:53.845Z,-1.24
2019-04-11T07:46:53.987Z,-1.64
2019-04-11T07:47:54.986Z,-1.73
2019-04-11T07:48:54.994Z,-1.67
2019-04-11T07:49:58.349Z,-1.78
2019-04-11T07:50:55.651Z,-1.68
2019-04-11T07:51:54.419Z,-1.63
2019-04-11T07:52:53.918Z,-1.47
2019-04-11T07:53:54.808Z,-1.43
2019-04-11T07:54:53.858Z,-1.33
2019-04-11T07:55:53.578Z,-1.38
2019-04-11T07:56:53.600Z,-1.17
2019-04-11T07:57:54.871Z,-1.55
2019-04-11T07:58:56.448Z,-1.5
2019-04-11T07:59:53.577Z,-1.33
2019-04-11T08:00:56.173Z,-1.45
2019-04-11T08:01:53.512Z,-1.47
2019-04-11T08:02:53.478Z,-1.66
2019-04-11T08:03:53.763Z,-1.44
2019-04-11T08:04:53.795Z,-1.31
2019-04-11T08:05:54.735Z,-1.26
2019-04-11T08:06:54.494Z,-1.27
2019-04-11T08:07:53.567Z,-1.18
2019-04-11T08:08:56.150Z,-1.26
2019-04-11T08:09:53.494Z,-1.25
2019-04-11T08:10:54.833Z,-1.3
2019-04-11T08:11:53.478Z,-1.41
2019-04-11T08:12:54.400Z,-1.38
2019-04-11T08:13:56.862Z,-1.35
2019-04-11T08:14:53.450Z,-1.39
2019-04-11T08:15:53.899Z,-1.18
2019-04-11T08:16:53.474Z,-1.31
2019-04-11T08:17:54.562Z,-0.97
2019-04-11T08:18:53.447Z,-1.07
2019-04-11T08:19:53.475Z,-1.31
2019-04-11T08:20:53.481Z,-1.22
2019-04-11T08:21:54.721Z,-1.05
2019-04-11T08:22:53.447Z,-1.41
2019-04-11T08:23:54.395Z,-1.61
2019-04-11T08:24:53.642Z,-1.2
2019-04-11T08:25:53.850Z,-1.18
2019-04-11T08:26:53.703Z,-1.16
2019-04-11T08:28:09.400Z,-1.04
2019-04-11T08:29:16.113Z,-1.03
2019-04-11T08:29:54.877Z,-0.82
2019-04-11T08:30:53.483Z,-0.97
2019-04-11T08:31:57.783Z,-1.01
2019-04-11T08:32:54.107Z,-0.93
2019-04-11T08:33:53.424Z,-0.69
2019-04-11T08:34:53.663Z,-0.8
2019-04-11T08:35:59.832Z,-0.77
2019-04-11T08:36:53.840Z,-0.51
2019-04-11T08:37:54.218Z,-0.9
2019-04-11T08:38:53.476Z,-0.85
2019-04-11T08:39:53.574Z,-1.06
2019-04-11T08:40:53.530Z,-1.06
2019-04-11T08:41:53.486Z,-1.07
2019-04-11T08:42:53.454Z,-0.99
2019-04-11T08:43:55.381Z,-0.95
2019-04-11T08:44:54.433Z,-1.2
2019-04-11T08:45:54.392Z,-0.92
2019-04-11T08:46:54.133Z,-0.76
2019-04-11T08:48:00.380Z,-0.7
2019-04-11T08:48:54.618Z,-0.91
2019-04-11T08:49:58.509Z,-1.3
2019-04-11T08:50:54.813Z,-0.97
2019-04-11T08:51:53.963Z,-0.98
2019-04-11T08:52:54.399Z,-0.88
2019-04-11T08:53:53.396Z,-1.03
2019-04-11T08:54:53.686Z,-0.98
2019-04-11T08:56:05.228Z,-0.83
2019-04-11T08:56:53.798Z,-0.56
2019-04-11T08:57:54.023Z,-0.48
2019-04-11T08:58:53.416Z,-0.74
2019-04-11T08:59:53.668Z,-0.88
2019-04-11T09:01:00.867Z,-0.67
2019-04-11T09:01:54.169Z,-0.63
2019-04-11T09:02:53.650Z,-0.38
2019-04-11T09:04:14.058Z,-0.5
2019-04-11T09:05:20.298Z,-0.75
2019-04-11T09:05:53.492Z,-0.97
2019-04-11T09:06:53.411Z,-0.76
2019-04-11T09:07:56.128Z,-0.77
2019-04-11T09:08:54.583Z,-0.78
2019-04-11T09:09:55.703Z,-0.47
2019-04-11T09:10:56.174Z,-1.05
2019-04-11T09:12:12.627Z,-0.55
2019-04-11T09:12:53.470Z,-0.6
2019-04-11T09:13:53.655Z,-0.53
2019-04-11T09:14:54.830Z,-0.75
2019-04-11T09:15:53.401Z,-0.54
2019-04-11T09:16:54.310Z,-0.46
2019-04-11T09:18:13.697Z,-0.54
2019-04-11T09:18:54.576Z,-0.42
2019-04-11T09:19:53.397Z,-0.29
2019-04-11T09:20:54.164Z,-0.33
2019-04-11T09:21:53.405Z,-0.31
2019-04-11T09:22:53.567Z,-0.5
2019-04-11T09:23:54.828Z,-0.46
2019-04-11T09:24:53.409Z,-0.35
2019-04-11T09:25:56.736Z,-0.39
2019-04-11T09:26:58.511Z,-0.19
2019-04-11T09:27:55.861Z,-0.21
2019-04-11T09:28:53.808Z,-0.21
2019-04-11T09:29:54.632Z,-0.19
2019-04-11T09:30:53.347Z,-0.37
2019-04-11T09:31:54.042Z,-0.29
2019-04-11T09:32:53.452Z,-0.11
2019-04-11T09:33:55.714Z,-0.2
2019-04-11T09:34:54.480Z,-0.2
2019-04-11T09:35:53.456Z,-0.8
2019-04-11T09:36:53.574Z,-1.14
2019-04-11T09:37:53.991Z,-1.01
2019-04-11T09:38:53.413Z,-1.19
2019-04-11T09:39:53.355Z,-1.06
2019-04-11T09:40:54.401Z,-1.69
2019-04-11T09:41:54.653Z,-1.88
2019-04-11T09:42:53.718Z,-1.77
2019-04-11T09:43:53.390Z,-1.62
2019-04-11T09:44:53.365Z,-1.93
2019-04-11T09:45:54.477Z,-1.81
2019-04-11T09:46:57.103Z,-2
2019-04-11T09:48:19.886Z,-1.49
2019-04-11T09:48:54.025Z,-1.56
2019-04-11T09:49:53.976Z,-1.21
2019-04-11T09:50:53.378Z,-1.04
2019-04-11T09:51:54.427Z,-0.73
2019-04-11T09:52:56.081Z,-0.55
2019-04-11T09:53:53.512Z,-0.68
2019-04-11T09:54:54.774Z,-0.54
2019-04-11T09:55:53.878Z,-0.49
2019-04-11T09:56:54.174Z,-0.57
2019-04-11T09:57:54.818Z,-0.47
2019-04-11T09:58:53.350Z,-0.75
2019-04-11T09:59:54.511Z,-0.51
2019-04-11T10:00:53.364Z,-0.63
2019-04-11T10:01:54.239Z,-0.65
2019-04-11T10:02:53.372Z,-0.72
2019-04-11T10:03:53.462Z,-1.56
2019-04-11T10:04:54.591Z,-1.41
2019-04-11T10:05:54.833Z,-1.6
2019-04-11T10:06:53.475Z,-1.7
2019-04-11T10:07:54.677Z,-1.91
2019-04-11T10:08:53.436Z,-1.91
2019-04-11T10:09:56.982Z,-1.53
2019-04-11T10:10:53.448Z,-1.24
2019-04-11T10:11:55.352Z,-1.55
2019-04-11T10:12:54.410Z,-1.6
2019-04-11T10:13:53.482Z,-1.44
2019-04-11T10:14:53.773Z,-1.51
2019-04-11T10:15:53.820Z,-1.4
2019-04-11T10:16:53.345Z,-1.34
2019-04-11T10:17:54.882Z,-1.13
2019-04-11T10:18:53.788Z,-0.92
2019-04-11T10:19:54.504Z,-0.68
2019-04-11T10:20:53.311Z,-0.36
2019-04-11T10:21:54.578Z,-1.18
2019-04-11T10:22:54.681Z,-1.09
2019-04-11T10:23:53.610Z,-1.03
2019-04-11T10:24:54.731Z,-1.26
2019-04-11T10:25:53.964Z,-1.73
2019-04-11T10:26:53.270Z,-1.3
2019-04-11T10:27:53.374Z,-1.47
2019-04-11T10:28:53.752Z,-1.36
2019-04-11T10:29:54.595Z,-1.25
2019-04-11T10:30:53.850Z,-1.64
2019-04-11T10:31:53.330Z,-1.43
2019-04-11T10:32:53.378Z,-1.15
2019-04-11T10:33:53.347Z,-1.32
2019-04-11T10:34:54.298Z,-1.05
2019-04-11T10:35:54.481Z,-1.09
2019-04-11T10:36:53.854Z,-0.92
2019-04-11T10:37:53.353Z,-1.11
2019-04-11T10:38:55.295Z,-1.3
2019-04-11T10:39:53.879Z,-1.18
2019-04-11T10:40:54.687Z,-1.2
2019-04-11T10:41:53.980Z,-0.93
2019-04-11T10:42:54.129Z,-1.08
2019-04-11T10:43:54.005Z,-0.99
2019-04-11T10:44:54.308Z,-1.44
2019-04-11T10:45:53.284Z,-1.61
2019-04-11T10:46:53.543Z,-1.66
2019-04-11T10:47:56.100Z,-1.69
2019-04-11T10:48:53.317Z,-1.64
2019-04-11T10:49:54.707Z,-1.85
2019-04-11T10:50:53.347Z,-1.71
2019-04-11T10:51:54.153Z,-1.68
2019-04-11T10:52:53.297Z,-1.65
2019-04-11T10:53:53.559Z,-1.71
2019-04-11T10:54:55.421Z,-1.5
2019-04-11T10:55:53.971Z,-1
2019-04-11T10:56:53.883Z,-1.27
2019-04-11T10:57:54.292Z,-1.35
2019-04-11T10:58:55.606Z,-1.17
2019-04-11T10:59:54.747Z,-1.34
2019-04-11T11:00:53.808Z,-1.29
2019-04-11T11:01:53.280Z,-1.36
2019-04-11T11:02:53.828Z,-1.37
2019-04-11T11:03:53.732Z,-1.34
2019-04-11T11:04:53.775Z,-2.03
2019-04-11T11:05:53.508Z,-1.99
2019-04-11T11:06:54.070Z,-1.44
2019-04-11T11:07:53.252Z,-1.24
2019-04-11T11:08:53.551Z,-1.22
2019-04-11T11:09:53.246Z,-0.88
2019-04-11T11:10:53.243Z,-0.76
2019-04-11T11:11:53.357Z,-1.59
2019-04-11T11:12:53.959Z,-0.87
2019-04-11T11:13:54.439Z,-1.04
2019-04-11T11:14:53.915Z,-1.21
2019-04-11T11:15:53.310Z,-1.61
2019-04-11T11:16:53.262Z,-1.14
2019-04-11T11:20:38.481Z,-1.35
2019-04-11T11:21:07.376Z,-1.15
2019-04-11T11:21:53.472Z,-1.25
2019-04-11T11:22:54.008Z,-1.17
2019-04-11T11:23:54.614Z,-1.1
2019-04-11T11:24:54.662Z,-0.95
2019-04-11T11:25:53.473Z,-1.12
2019-04-11T11:27:05.657Z,-1.18
2019-04-11T11:27:53.251Z,-0.9
2019-04-11T11:28:53.230Z,-1.09
2019-04-11T11:29:54.310Z,-1.18
2019-04-11T11:30:54.287Z,-1.25
2019-04-11T11:31:54.826Z,-1.56
2019-04-11T11:32:54.044Z,-1.42
2019-04-11T11:33:54.536Z,-1.4
2019-04-11T11:34:55.178Z,-1.07
2019-04-11T11:36:00.455Z,-0.83
2019-04-11T11:36:57.051Z,-0.58
2019-04-11T11:37:53.639Z,-0.77
2019-04-11T11:38:54.508Z,-0.41
2019-04-11T11:39:53.290Z,-0.25
2019-04-11T11:40:54.385Z,-0.37
2019-04-11T11:41:54.638Z,-0.91
2019-04-11T11:42:53.218Z,-1.09
2019-04-11T11:43:53.209Z,-1
2019-04-11T11:44:53.351Z,-1.3
2019-04-11T11:45:57.592Z,-1.37
2019-04-11T11:46:54.299Z,-1.41
2019-04-11T11:47:53.368Z,-1.15
2019-04-11T11:48:54.597Z,-0.77
2019-04-11T11:50:08.630Z,-1.19
2019-04-11T11:50:53.247Z,-0.93
2019-04-11T11:51:54.099Z,-0.52
2019-04-11T11:52:53.344Z,-1.34
2019-04-11T11:53:53.374Z,-1.14
2019-04-11T11:54:53.791Z,-0.43
2019-04-11T11:55:53.789Z,-0.43
2019-04-11T11:56:54.204Z,-0.44
2019-04-11T11:57:53.279Z,-1.07
2019-04-11T11:59:01.224Z,-0.98
2019-04-11T11:59:53.459Z,-1.11
2019-04-11T12:01:08.919Z,-1.52
2019-04-11T12:01:54.486Z,-1.4
2019-04-11T12:02:57.017Z,-1.49
2019-04-11T12:04:05.058Z,-1.36
2019-04-11T12:04:54.196Z,-1.32
2019-04-11T12:05:54.212Z,-1.2
2019-04-11T12:07:07.635Z,-1.21
2019-04-11T12:07:56.252Z,-0.89
2019-04-11T12:08:54.247Z,-1.1
2019-04-11T12:09:53.190Z,-1.38
2019-04-11T12:10:53.574Z,-1.2
2019-04-11T12:11:57.088Z,-1.01
2019-04-11T12:12:54.282Z,-1.6
2019-04-11T12:13:53.873Z,-1.44
2019-04-11T12:14:53.965Z,-1.72
2019-04-11T12:15:53.658Z,-1.77
2019-04-11T12:17:08.035Z,-1.41
2019-04-11T12:17:54.208Z,-1.86
2019-04-11T12:18:55.231Z,-1.78
2019-04-11T12:20:16.292Z,-1.58
2019-04-11T12:20:59.453Z,-1.53
2019-04-11T12:21:53.941Z,-1.71
2019-04-11T12:22:55.269Z,-1.7
2019-04-11T12:24:09.661Z,-1.4
2019-04-11T12:24:53.536Z,-0.94
2019-04-11T12:25:54.078Z,-1.6
2019-04-11T12:26:54.081Z,-1.5
2019-04-11T12:27:54.317Z,-1.43
2019-04-11T12:28:54.360Z,-1.14
2019-04-11T12:29:53.642Z,-0.97
2019-04-11T12:31:05.530Z,-1.07
2019-04-11T12:31:53.246Z,-0.82
2019-04-11T12:32:53.129Z,-1.95
2019-04-11T12:33:54.159Z,-1.98
2019-04-11T12:34:53.140Z,-1.46
2019-04-11T12:35:53.139Z,-1.71
2019-04-11T12:36:57.033Z,-1.11
2019-04-11T12:37:56.095Z,-0.51
2019-04-11T12:38:55.597Z,-0.96
2019-04-11T12:39:53.410Z,-0.56
2019-04-11T12:40:53.224Z,-0.36
2019-04-11T12:41:53.137Z,-1.25
2019-04-11T12:42:53.148Z,-0.86
2019-04-11T12:43:53.160Z,-0.98
2019-04-11T12:44:53.109Z,-1.43
2019-04-11T12:45:53.192Z,-1.56
2019-04-11T12:46:53.523Z,-1.42
2019-04-11T12:47:53.436Z,-2.05
2019-04-11T12:48:53.193Z,-1.4
2019-04-11T12:49:53.682Z,-2.09
2019-04-11T12:50:53.139Z,-1.72
2019-04-11T12:51:53.243Z,-1.39
2019-04-11T12:52:53.164Z,-1.62
2019-04-11T12:53:53.114Z,-1.32
2019-04-11T12:54:53.171Z,-1.61
2019-04-11T12:55:53.124Z,-1.29
2019-04-11T12:56:53.211Z,-1.19
2019-04-11T12:57:53.164Z,-0.99
2019-04-11T12:58:53.106Z,-1.74
2019-04-11T12:59:53.149Z,-1.18
2019-04-11T13:00:53.104Z,-0.9
2019-04-11T13:01:53.232Z,-1.16
2019-04-11T13:02:53.168Z,-1.79
2019-04-11T13:03:53.201Z,-0.93
2019-04-11T13:04:53.163Z,-1.26
2019-04-11T13:05:53.079Z,-0.67
2019-04-11T13:06:54.092Z,-1.06
2019-04-11T13:07:53.203Z,-0.67
2019-04-11T13:08:53.428Z,-0.63
2019-04-11T13:09:53.173Z,-0.47
2019-04-11T13:10:53.132Z,-0.78
2019-04-11T13:11:53.200Z,-1.14
2019-04-11T13:12:53.084Z,-0.86
2019-04-11T13:13:54.296Z,-1.05
2019-04-11T13:14:53.117Z,-1.26
2019-04-11T13:15:54.879Z,-1.28
2019-04-11T13:16:53.088Z,-1.85
2019-04-11T13:17:53.166Z,-2.12
2019-04-11T13:18:53.118Z,-1.68
2019-04-11T13:20:05.430Z,-0.87
2019-04-11T13:20:53.125Z,-1.43
2019-04-11T13:21:53.260Z,-1.48
2019-04-11T13:22:53.158Z,-1.84
2019-04-11T13:23:53.187Z,-1.54
2019-04-11T13:24:53.216Z,-1.75
2019-04-11T13:25:53.062Z,-1.28
2019-04-11T13:26:53.157Z,-1.73
2019-04-11T13:27:53.081Z,-1.1
2019-04-11T13:28:53.133Z,-1.27